Terminal Aerodrome Forecast
Issued by NWS Cleveland, OH

Home | Current Version | Previous Version | Graphics & Text | Print | Product List | Glossary On
Versions: 1 2 3 4 5 6 7 8 9 10 11 12
000
FTUS41 KCLE 211132
TAFCAK
TAF
KCAK 211132Z 2112/2212 00000KT P6SM FEW250
      TEMPO 2112/2113 2SM BR SCT004
     FM211300 00000KT 5SM BR SCT006
     FM211400 17003KT P6SM SCT250
     FM211800 16004KT P6SM SCT045
     FM220000 08003KT P6SM FEW250
     FM220900 12003KT 4SM BR FEW250=

USA.gov is the U.S. government's official web portal to all federal, state and local government web resources and services.